Time;durP1;ratioP1;P1;durP2;ratioP2;P2;SDS_P1;SDS_P2;PMS_P1;PMS_P2;Temp;Humidity;BMP_temperature;BMP_pressure;BME280_temperature;BME280_humidity;BME280_pressure;Samples;Min_cycle;Max_cycle;Signal;HPM_P1;HPM_P2
2021/09/22 13:16:32;;;;;;;3.33;0.70;;;22.20;99.90;;;;;;5070241;28;21061;-88
2021/09/22 13:18:59;;;;;;;4.97;0.73;;;21.90;99.90;;;;;;5070337;28;20404;-89
2021/09/22 13:21:26;;;;;;;4.50;0.90;;;21.90;99.90;;;;;;5069083;28;20785;-89
2021/09/22 13:23:55;;;;;;;4.83;1.03;;;21.70;99.90;;;;;;5069028;28;20413;-89
2021/09/22 13:26:22;;;;;;;3.10;0.97;;;21.70;99.90;;;;;;5070095;28;20411;-89
2021/09/22 13:28:49;;;;;;;5.80;1.17;;;21.50;99.90;;;;;;5069794;28;20456;-88
2021/09/22 13:31:16;;;;;;;6.33;0.70;;;21.50;99.90;;;;;;5069570;28;20411;-88
2021/09/22 13:33:43;;;;;;;3.77;0.63;;;21.60;99.90;;;;;;5068657;28;20462;-89
2021/09/22 13:36:09;;;;;;;3.53;1.03;;;21.60;99.90;;;;;;5071104;28;20443;-89
2021/09/22 13:38:38;;;;;;;4.30;0.77;;;21.20;99.90;;;;;;5068503;28;20480;-89
2021/09/22 13:41:05;;;;;;;5.30;0.60;;;21.20;99.90;;;;;;5069803;28;20405;-89
2021/09/22 13:43:33;;;;;;;2.83;0.87;;;21.20;99.90;;;;;;5069502;28;20448;-89
2021/09/22 13:45:59;;;;;;;2.07;0.57;;;21.20;99.90;;;;;;5068066;28;20508;-89
2021/09/22 13:48:25;;;;;;;6.43;1.17;;;21.30;99.90;;;;;;5069771;28;20417;-89
2021/09/22 13:50:51;;;;;;;4.83;0.60;;;21.20;99.90;;;;;;5068183;28;20424;-89
2021/09/22 13:53:18;;;;;;;3.23;0.57;;;21.20;99.90;;;;;;5069537;28;20248;-89
2021/09/22 13:55:48;;;;;;;3.87;0.67;;;21.20;99.90;;;;;;5069321;28;20299;-89
2021/09/22 13:58:14;;;;;;;3.90;0.80;;;21.10;99.90;;;;;;5069422;28;20414;-90
2021/09/22 14:00:43;;;;;;;3.17;0.87;;;21.00;99.90;;;;;;5069291;28;20414;-89
2021/09/22 14:03:10;;;;;;;2.63;0.60;;;21.00;99.90;;;;;;5067589;28;20953;-88
2021/09/22 14:05:36;;;;;;;5.03;0.63;;;21.00;99.90;;;;;;5069450;28;20414;-90
2021/09/22 14:08:03;;;;;;;4.10;0.57;;;20.80;99.90;;;;;;5069337;28;20523;-89
2021/09/22 14:10:31;;;;;;;2.93;0.70;;;20.70;99.90;;;;;;5069340;28;20410;-90
2021/09/22 14:13:00;;;;;;;4.13;1.03;;;20.80;99.90;;;;;;5069267;28;20409;-90
2021/09/22 14:15:35;;;;;;;3.70;1.07;;;20.70;99.90;;;;;;5067740;28;20545;-89
2021/09/22 14:18:09;;;;;;;4.70;0.57;;;20.50;99.90;;;;;;5067467;28;20412;-90
2021/09/22 14:20:37;;;;;;;4.83;0.57;;;20.40;99.90;;;;;;5069031;28;20415;-88
2021/09/22 14:23:04;;;;;;;2.97;0.60;;;20.30;99.90;;;;;;5068997;28;20412;-90
2021/09/22 14:25:31;;;;;;;3.90;0.70;;;20.30;99.90;;;;;;5065839;28;20838;-89
2021/09/22 14:27:57;;;;;;;2.00;0.50;;;20.30;99.90;;;;;;5058132;28;20497;-88
2021/09/22 14:30:25;;;;;;;3.90;0.63;;;20.20;99.90;;;;;;5054647;28;20432;-90
2021/09/22 14:32:51;;;;;;;5.03;0.60;;;20.10;99.90;;;;;;5055322;28;20401;-89
2021/09/22 14:35:18;;;;;;;2.60;0.50;;;20.00;99.90;;;;;;5054446;28;20497;-88
2021/09/22 14:37:44;;;;;;;4.17;0.80;;;19.80;99.90;;;;;;5055373;28;20770;-89
2021/09/22 14:40:11;;;;;;;3.63;1.83;;;19.90;99.90;;;;;;5054215;28;20519;-89
2021/09/22 14:42:38;;;;;;;3.83;0.70;;;19.80;99.90;;;;;;5055504;28;20172;-90
2021/09/22 14:45:06;;;;;;;4.13;1.20;;;19.80;99.90;;;;;;5053149;28;20428;-88
2021/09/22 14:47:32;;;;;;;4.40;1.30;;;19.80;99.90;;;;;;5047583;28;20944;-89
2021/09/22 14:49:57;;;;;;;2.47;0.73;;;19.60;99.90;;;;;;5054043;28;20502;-90
2021/09/22 14:52:23;;;;;;;3.20;0.73;;;19.50;99.90;;;;;;5053812;28;20865;-87
2021/09/22 14:54:51;;;;;;;4.93;1.57;;;19.40;99.90;;;;;;5054971;28;20230;-86
2021/09/22 14:57:16;;;;;;;4.90;1.20;;;19.20;99.90;;;;;;5054548;28;20166;-85
2021/09/22 14:59:42;;;;;;;4.80;1.40;;;19.20;99.90;;;;;;5053516;28;20431;-87
2021/09/22 15:02:08;;;;;;;7.07;1.03;;;19.20;99.90;;;;;;5051812;28;20182;-85
2021/09/22 15:04:33;;;;;;;5.17;1.43;;;19.10;99.90;;;;;;5052046;28;20208;-85
2021/09/22 15:06:59;;;;;;;2.33;0.60;;;19.10;99.90;;;;;;5053512;28;20197;-85
2021/09/22 15:09:24;;;;;;;3.83;0.90;;;19.10;99.90;;;;;;5053234;28;20177;-84
2021/09/22 15:11:50;;;;;;;6.13;1.33;;;19.00;99.90;;;;;;5051940;28;20188;-85
2021/09/22 15:14:16;;;;;;;3.10;1.23;;;19.00;99.90;;;;;;5052447;28;20221;-86
2021/09/22 15:16:42;;;;;;;5.13;1.27;;;18.90;99.90;;;;;;5051667;28;20629;-84
2021/09/22 15:19:07;;;;;;;6.40;1.40;;;18.90;99.90;;;;;;5053240;28;20175;-85
2021/09/22 15:21:33;;;;;;;2.77;1.40;;;18.80;99.90;;;;;;5052923;28;20415;-86
2021/09/22 15:23:59;;;;;;;6.00;1.13;;;18.70;99.90;;;;;;5053080;28;20177;-85
2021/09/22 15:26:27;;;;;;;5.37;1.00;;;18.70;99.90;;;;;;5053295;28;20177;-86
2021/09/22 15:28:53;;;;;;;3.37;0.93;;;18.70;99.90;;;;;;5052741;28;20177;-85
2021/09/22 15:31:19;;;;;;;5.00;2.07;;;18.60;99.90;;;;;;5052590;28;20514;-86
2021/09/22 15:33:46;;;;;;;5.83;1.53;;;18.60;99.90;;;;;;5052810;28;20225;-84
2021/09/22 15:36:12;;;;;;;7.10;1.60;;;18.50;99.90;;;;;;5052802;28;21195;-84
2021/09/22 15:38:39;;;;;;;6.77;2.07;;;18.50;99.90;;;;;;5052018;28;20402;-85
2021/09/22 15:41:06;;;;;;;3.50;1.30;;;18.50;99.90;;;;;;5052696;28;20177;-86
2021/09/22 15:43:31;;;;;;;5.43;1.40;;;18.40;99.90;;;;;;5051357;28;20476;-85
2021/09/22 15:45:57;;;;;;;5.27;1.80;;;18.50;99.90;;;;;;5052537;28;20417;-84
2021/09/22 15:48:23;;;;;;;5.53;1.70;;;18.50;99.90;;;;;;5051273;28;20238;-84
2021/09/22 15:50:50;;;;;;;5.53;1.60;;;18.40;99.90;;;;;;5053910;28;20175;-83
2021/09/22 15:53:15;;;;;;;5.10;1.37;;;18.30;99.90;;;;;;5054162;28;20671;-86
2021/09/22 15:55:41;;;;;;;5.90;2.03;;;18.20;99.90;;;;;;5051192;28;20483;-87
2021/09/22 15:58:08;;;;;;;5.67;1.60;;;18.20;99.90;;;;;;5052529;28;20167;-87
2021/09/22 16:00:34;;;;;;;6.37;2.10;;;18.10;99.90;;;;;;5050759;28;20480;-84
2021/09/22 16:03:00;;;;;;;4.73;1.60;;;18.10;99.90;;;;;;5051320;28;20416;-84
2021/09/22 16:05:27;;;;;;;3.83;1.30;;;18.10;99.90;;;;;;5052436;28;20425;-84
2021/09/22 16:07:53;;;;;;;4.40;1.63;;;18.10;99.90;;;;;;5052354;28;20460;-85
2021/09/22 16:10:19;;;;;;;5.43;1.70;;;18.00;99.90;;;;;;5050814;28;20423;-85
2021/09/22 16:12:45;;;;;;;6.57;1.73;;;18.00;99.90;;;;;;5051949;28;20466;-86
2021/09/22 16:15:12;;;;;;;5.13;1.63;;;17.80;99.90;;;;;;5050418;28;20237;-86
2021/09/22 16:17:38;;;;;;;4.43;1.93;;;17.80;99.90;;;;;;5050402;28;20458;-86
2021/09/22 16:20:04;;;;;;;4.13;1.77;;;17.60;99.90;;;;;;5052089;28;20429;-85
2021/09/22 16:22:30;;;;;;;4.63;1.70;;;17.50;99.90;;;;;;5049435;28;20413;-85
2021/09/22 16:24:56;;;;;;;5.53;1.53;;;17.50;99.90;;;;;;5050860;28;20426;-85
2021/09/22 16:27:22;;;;;;;3.30;1.07;;;17.50;99.90;;;;;;5050878;28;20631;-86
2021/09/22 16:29:48;;;;;;;4.43;1.93;;;17.30;99.90;;;;;;5050771;28;20228;-86
2021/09/22 16:32:14;;;;;;;5.40;1.80;;;17.30;99.90;;;;;;5049144;28;20209;-86
2021/09/22 16:34:39;;;;;;;5.03;2.30;;;17.10;99.90;;;;;;5050667;28;20493;-86
2021/09/22 16:37:06;;;;;;;6.00;2.70;;;17.20;99.90;;;;;;5048739;28;20176;-87
2021/09/22 16:39:32;;;;;;;7.90;3.40;;;17.00;99.90;;;;;;5050650;28;20187;-86
2021/09/22 16:41:58;;;;;;;4.23;2.30;;;16.80;99.90;;;;;;5050590;28;20426;-86
2021/09/22 16:44:26;;;;;;;4.10;1.40;;;16.80;99.90;;;;;;5049532;28;20923;-86
2021/09/22 16:46:52;;;;;;;3.20;1.80;;;16.90;99.90;;;;;;5049667;28;20415;-87
2021/09/22 16:49:24;;;;;;;3.87;2.27;;;16.70;99.90;;;;;;5047881;28;20412;-86
2021/09/22 16:51:50;;;;;;;4.13;2.07;;;16.60;99.90;;;;;;5047213;28;20422;-87
2021/09/22 16:54:15;;;;;;;3.17;2.03;;;16.50;99.90;;;;;;5049187;28;20475;-84
2021/09/22 16:56:44;;;;;;;6.43;2.53;;;16.60;99.90;;;;;;5050064;28;20173;-84
2021/09/22 16:59:10;;;;;;;5.87;2.10;;;16.60;99.90;;;;;;5051571;28;20176;-85
2021/09/22 17:01:36;;;;;;;5.80;2.87;;;16.60;99.90;;;;;;5051067;28;20930;-85
2021/09/22 17:04:02;;;;;;;7.43;1.93;;;16.50;99.90;;;;;;5051535;28;20179;-88
2021/09/22 17:06:27;;;;;;;7.23;2.10;;;16.40;99.90;;;;;;5051289;28;20848;-86
2021/09/22 17:08:56;;;;;;;3.83;1.63;;;16.50;99.90;;;;;;5051372;28;20526;-85
2021/09/22 17:11:21;;;;;;;6.43;2.80;;;16.40;99.90;;;;;;5051239;28;20176;-85
2021/09/22 17:13:47;;;;;;;4.50;2.97;;;16.20;99.90;;;;;;5051371;28;20489;-85
2021/09/22 17:16:14;;;;;;;5.87;2.90;;;16.20;99.90;;;;;;5050652;28;20214;-87
2021/09/22 17:18:43;;;;;;;4.20;2.77;;;16.10;99.90;;;;;;5046917;28;20801;-85
2021/09/22 17:21:09;;;;;;;4.50;2.37;;;16.10;99.90;;;;;;5043226;28;20428;-86
2021/09/22 17:23:44;;;;;;;5.30;2.00;;;16.20;99.90;;;;;;5049737;28;20779;-85
2021/09/22 17:26:09;;;;;;;6.37;2.27;;;16.10;99.90;;;;;;5049905;28;20410;-84
2021/09/22 17:28:36;;;;;;;5.37;2.87;;;16.00;99.90;;;;;;5048878;28;20476;-85
2021/09/22 17:31:04;;;;;;;7.43;3.53;;;15.90;99.90;;;;;;5050269;28;20168;-86
2021/09/22 17:33:29;;;;;;;5.47;3.00;;;15.70;99.90;;;;;;5029624;28;20477;-86
2021/09/22 17:35:55;;;;;;;6.17;3.20;;;15.70;99.90;;;;;;5030810;28;20471;-85
2021/09/22 17:38:26;;;;;;;8.33;3.40;;;15.60;99.90;;;;;;5030567;28;20174;-85
2021/09/22 17:40:53;;;;;;;6.47;3.93;;;15.40;99.90;;;;;;5031110;28;20207;-86
2021/09/22 17:43:19;;;;;;;5.20;2.57;;;15.40;99.90;;;;;;5031005;28;20773;-86
2021/09/22 17:45:47;;;;;;;7.17;3.13;;;15.40;99.90;;;;;;5030696;28;20416;-82
2021/09/22 17:48:13;;;;;;;10.17;4.30;;;15.30;99.90;;;;;;5031100;28;20172;-84
2021/09/22 17:50:43;;;;;;;8.67;4.00;;;15.30;99.90;;;;;;5029534;28;20467;-87
2021/09/22 17:53:08;;;;;;;5.90;3.10;;;15.30;99.90;;;;;;5031271;28;20649;-86
2021/09/22 17:55:34;;;;;;;4.23;3.80;;;15.10;99.90;;;;;;5029656;28;20478;-87
2021/09/22 17:58:00;;;;;;;5.83;4.07;;;15.10;99.90;;;;;;5031132;28;20416;-87
2021/09/22 18:00:25;;;;;;;7.33;3.93;;;15.10;99.90;;;;;;5029313;28;20245;-87
2021/09/22 18:02:51;;;;;;;10.40;5.13;;;14.90;99.90;;;;;;5033115;28;20171;-87
2021/09/22 18:05:17;;;;;;;6.53;4.60;;;14.80;99.90;;;;;;5034667;28;20212;-83
2021/09/22 18:07:43;;;;;;;5.00;4.00;;;14.60;99.90;;;;;;5034630;28;20808;-83
2021/09/22 18:10:11;;;;;;;8.73;4.70;;;14.60;99.90;;;;;;5034793;28;20549;-84
2021/09/22 18:12:37;;;;;;;10.97;5.10;;;14.50;99.90;;;;;;5033158;28;20744;-84
2021/09/22 18:15:10;;;;;;;9.00;5.40;;;14.40;99.90;;;;;;5033006;28;20477;-84
2021/09/22 18:17:36;;;;;;;7.93;5.03;;;14.30;99.90;;;;;;5034627;28;20414;-84
2021/09/22 18:20:09;;;;;;;5.30;4.67;;;14.20;99.90;;;;;;5034477;28;20402;-84
2021/09/22 18:22:35;;;;;;;7.63;3.63;;;14.10;99.90;;;;;;5034362;28;20425;-84
2021/09/22 18:25:02;;;;;;;6.67;4.53;;;14.10;99.90;;;;;;5034170;28;20417;-86
2021/09/22 18:27:28;;;;;;;8.17;5.03;;;14.20;99.90;;;;;;5033003;28;20952;-85
2021/09/22 18:29:53;;;;;;;5.17;3.90;;;14.00;99.90;;;;;;5038684;28;20412;-83
2021/09/22 18:32:19;;;;;;;7.27;4.30;;;13.90;99.90;;;;;;5054240;28;20200;-85
2021/09/22 18:34:45;;;;;;;6.93;4.67;;;13.90;99.90;;;;;;5054403;28;20293;-84
2021/09/22 18:37:12;;;;;;;8.63;5.20;;;13.90;99.90;;;;;;5054559;28;20170;-83
2021/09/22 18:39:39;;;;;;;7.93;4.53;;;14.10;99.90;;;;;;5054721;28;20497;-86
2021/09/22 18:42:13;;;;;;;7.17;5.20;;;14.00;99.90;;;;;;5053581;28;20968;-85
2021/09/22 18:44:44;;;;;;;8.40;5.47;;;14.10;99.90;;;;;;5054845;28;20460;-88
2021/09/22 18:47:10;;;;;;;8.60;5.20;;;14.10;99.90;;;;;;5048043;28;20459;-83
2021/09/22 18:49:39;;;;;;;6.23;5.00;;;14.10;99.90;;;;;;5052507;28;20444;-84
2021/09/22 18:52:05;;;;;;;6.23;5.20;;;14.00;99.90;;;;;;5052114;28;20162;-84
2021/09/22 18:54:32;;;;;;;9.93;5.37;;;13.90;99.90;;;;;;5050862;28;21122;-83
2021/09/22 18:57:01;;;;;;;9.60;5.40;;;14.00;99.90;;;;;;5052813;28;20576;-84
2021/09/22 18:59:29;;;;;;;8.60;5.37;;;13.90;99.90;;;;;;5052737;28;20456;-84
2021/09/22 19:01:56;;;;;;;9.40;5.87;;;13.90;99.90;;;;;;5052081;28;20444;-84
2021/09/22 19:04:22;;;;;;;6.90;5.13;;;13.70;99.90;;;;;;5052431;28;20497;-84
2021/09/22 19:06:48;;;;;;;8.93;5.83;;;13.60;99.90;;;;;;5052505;28;20408;-85
2021/09/22 19:09:15;;;;;;;7.93;5.40;;;13.50;99.90;;;;;;5052416;28;20165;-83
2021/09/22 19:11:41;;;;;;;5.97;5.30;;;13.50;99.90;;;;;;5052572;28;20459;-85
2021/09/22 19:14:07;;;;;;;7.07;5.63;;;13.50;99.90;;;;;;5052110;28;20435;-86
2021/09/22 19:16:33;;;;;;;5.93;5.00;;;13.30;99.90;;;;;;5051953;28;20185;-84
2021/09/22 19:19:01;;;;;;;7.20;5.03;;;13.30;99.90;;;;;;5052914;28;20416;-83
2021/09/22 19:21:27;;;;;;;6.57;4.83;;;13.20;99.90;;;;;;5052328;28;20421;-84
2021/09/22 19:23:52;;;;;;;5.73;4.47;;;13.10;99.90;;;;;;5052276;28;20431;-84
2021/09/22 19:26:18;;;;;;;8.37;6.00;;;13.00;99.90;;;;;;5052412;28;20169;-84
2021/09/22 19:28:44;;;;;;;7.37;5.40;;;13.00;99.90;;;;;;5052426;28;20209;-84
2021/09/22 19:31:10;;;;;;;7.00;5.70;;;12.90;99.90;;;;;;5052218;28;20420;-84
2021/09/22 19:33:41;;;;;;;8.47;6.43;;;12.90;99.90;;;;;;5052113;28;20819;-83
2021/09/22 19:36:08;;;;;;;9.53;7.10;;;12.80;99.90;;;;;;5052690;28;20228;-83
2021/09/22 19:38:34;;;;;;;8.00;6.03;;;12.80;99.90;;;;;;5053754;28;20404;-84
2021/09/22 19:41:00;;;;;;;9.10;6.60;;;12.80;99.90;;;;;;5066944;28;20477;-85
2021/09/22 19:43:27;;;;;;;12.07;7.70;;;12.80;99.90;;;;;;5051159;28;20169;-85
2021/09/22 19:45:52;;;;;;;7.77;6.97;;;12.70;99.90;;;;;;5050756;28;20434;-83
2021/09/22 19:48:18;;;;;;;9.90;7.10;;;12.70;99.90;;;;;;5052929;28;20411;-85
2021/09/22 19:50:45;;;;;;;11.00;8.73;;;12.80;99.90;;;;;;5052483;28;20677;-85
2021/09/22 19:53:10;;;;;;;10.17;6.90;;;12.90;99.90;;;;;;5052046;28;20172;-85
2021/09/22 19:55:36;;;;;;;10.83;9.23;;;12.90;99.90;;;;;;5050855;28;20466;-85
2021/09/22 19:58:02;;;;;;;9.50;7.37;;;13.00;99.90;;;;;;5052474;28;20178;-86
2021/09/22 20:00:28;;;;;;;12.97;8.33;;;12.90;99.90;;;;;;5047454;28;20769;-85
2021/09/22 20:02:54;;;;;;;10.37;8.40;;;12.80;99.90;;;;;;5048875;28;20456;-84
2021/09/22 20:05:20;;;;;;;8.53;7.63;;;12.80;99.90;;;;;;5051820;28;20173;-85
2021/09/22 20:07:46;;;;;;;8.63;7.53;;;12.80;99.90;;;;;;5050594;28;20426;-84
2021/09/22 20:10:12;;;;;;;13.60;10.60;;;12.80;99.90;;;;;;5052757;28;20178;-85
2021/09/22 20:12:38;;;;;;;13.37;9.80;;;12.60;99.90;;;;;;5051349;28;20422;-85
2021/09/22 20:15:07;;;;;;;11.83;10.17;;;12.60;99.90;;;;;;5051687;28;20475;-85
2021/09/22 20:17:33;;;;;;;9.30;7.60;;;12.60;99.90;;;;;;5051016;28;20598;-85
2021/09/22 20:20:07;;;;;;;9.90;8.90;;;12.50;99.90;;;;;;5051466;28;20453;-84
2021/09/22 20:22:37;;;;;;;11.17;8.47;;;12.50;99.90;;;;;;5051960;28;20165;-85
2021/09/22 20:25:05;;;;;;;12.37;11.20;;;12.60;99.90;;;;;;5051226;28;20475;-85
2021/09/22 20:27:31;;;;;;;13.80;10.47;;;12.60;99.90;;;;;;5051824;28;20922;-85
2021/09/22 20:29:59;;;;;;;10.97;9.80;;;12.60;99.90;;;;;;5051482;28;20764;-86
2021/09/22 20:32:25;;;;;;;12.33;9.27;;;12.50;99.90;;;;;;5051310;28;20459;-86
2021/09/22 20:34:51;;;;;;;10.13;9.13;;;12.50;99.90;;;;;;5051698;28;20467;-86
2021/09/22 20:37:17;;;;;;;9.93;8.93;;;12.50;99.90;;;;;;5051691;28;20752;-84
2021/09/22 20:39:43;;;;;;;11.13;8.50;;;12.40;99.90;;;;;;5051680;28;20419;-86
2021/09/22 20:42:09;;;;;;;9.50;8.53;;;12.40;99.90;;;;;;5050506;28;20180;-88
2021/09/22 20:44:35;;;;;;;10.67;8.30;;;12.30;99.90;;;;;;5050277;28;20424;-85
2021/09/22 20:47:00;;;;;;;12.57;9.53;;;12.30;99.90;;;;;;5050467;28;20425;-85
2021/09/22 20:49:26;;;;;;;11.67;9.50;;;12.30;99.90;;;;;;5050222;28;20172;-86
2021/09/22 20:51:55;;;;;;;11.13;9.97;;;12.30;99.90;;;;;;5050283;28;20181;-86
2021/09/22 20:54:21;;;;;;;12.47;9.07;;;12.30;99.90;;;;;;5050095;28;20211;-85
2021/09/22 20:56:46;;;;;;;9.60;8.57;;;12.20;99.90;;;;;;5051398;28;20937;-85
2021/09/22 20:59:12;;;;;;;11.53;9.70;;;12.10;99.90;;;;;;5051482;28;20172;-85
2021/09/22 21:01:38;;;;;;;10.93;9.90;;;12.10;99.90;;;;;;5051254;28;20538;-83
2021/09/22 21:04:04;;;;;;;11.13;9.90;;;12.00;99.90;;;;;;5051377;28;20184;-85
2021/09/22 21:06:29;;;;;;;13.60;8.40;;;12.00;99.90;;;;;;5051326;28;20183;-85
2021/09/22 21:08:55;;;;;;;10.03;8.93;;;12.00;99.90;;;;;;5051422;28;20263;-84
2021/09/22 21:11:21;;;;;;;10.43;9.03;;;11.90;99.90;;;;;;5051630;28;20608;-84
2021/09/22 21:13:47;;;;;;;10.80;9.90;;;11.90;99.90;;;;;;5050120;28;20171;-84
2021/09/22 21:16:13;;;;;;;12.93;9.73;;;11.90;99.90;;;;;;5050685;28;20231;-86
2021/09/22 21:18:39;;;;;;;12.10;9.90;;;11.90;99.90;;;;;;5050068;28;20418;-85
2021/09/22 21:21:05;;;;;;;12.63;11.10;;;12.00;99.90;;;;;;5051411;28;20426;-84
2021/09/22 21:23:34;;;;;;;18.20;13.40;;;12.00;99.90;;;;;;5051633;28;20517;-84
2021/09/22 21:26:00;;;;;;;15.43;13.80;;;12.10;99.90;;;;;;5051383;28;20513;-85
2021/09/22 21:28:25;;;;;;;20.33;16.50;;;12.30;99.90;;;;;;5049772;28;20875;-85
2021/09/22 21:30:55;;;;;;;17.03;14.70;;;12.40;99.90;;;;;;5050785;28;20208;-85
2021/09/22 21:33:26;;;;;;;13.33;12.13;;;12.50;99.90;;;;;;5050217;28;20232;-86
2021/09/22 21:35:55;;;;;;;13.67;12.23;;;12.30;99.90;;;;;;5049939;28;20481;-85
2021/09/22 21:38:20;;;;;;;13.23;10.90;;;12.30;99.90;;;;;;5055142;28;20455;-86
2021/09/22 21:40:47;;;;;;;12.90;11.47;;;12.20;99.90;;;;;;5055301;28;20441;-86
2021/09/22 21:43:13;;;;;;;18.37;14.57;;;12.10;99.90;;;;;;5055469;28;20174;-85
2021/09/22 21:45:38;;;;;;;14.40;13.00;;;12.20;99.90;;;;;;5054731;28;20427;-88
2021/09/22 21:48:05;;;;;;;15.93;13.90;;;12.20;99.90;;;;;;5055240;28;20177;-88
2021/09/22 21:50:30;;;;;;;15.23;13.63;;;12.20;99.90;;;;;;5054265;28;20180;-85
2021/09/22 21:52:56;;;;;;;15.47;13.63;;;12.20;99.90;;;;;;5053229;28;20792;-89
2021/09/22 21:55:22;;;;;;;18.47;16.50;;;12.20;99.90;;;;;;5054571;28;20311;-85
2021/09/22 21:57:47;;;;;;;22.07;19.70;;;12.30;99.90;;;;;;5056168;28;20172;-86
2021/09/22 22:00:16;;;;;;;17.77;15.93;;;12.60;99.90;;;;;;5055601;28;20910;-87
2021/09/22 22:02:42;;;;;;;17.23;15.43;;;12.50;99.90;;;;;;5056103;28;20164;-85
2021/09/22 22:05:12;;;;;;;17.03;15.23;;;12.40;99.90;;;;;;5055888;28;20781;-85
2021/09/22 22:07:38;;;;;;;13.57;12.27;;;12.30;99.90;;;;;;5054642;28;20198;-86
2021/09/22 22:10:05;;;;;;;13.87;12.47;;;12.30;99.90;;;;;;5055891;28;20841;-85
2021/09/22 22:12:31;;;;;;;19.37;15.30;;;12.10;99.90;;;;;;5055781;28;20902;-84
2021/09/22 22:15:00;;;;;;;15.83;14.20;;;12.10;99.90;;;;;;5055049;28;20481;-86
2021/09/22 22:17:26;;;;;;;16.93;15.20;;;12.00;99.90;;;;;;5055691;28;20174;-85
2021/09/22 22:19:53;;;;;;;17.70;15.83;;;11.90;99.90;;;;;;5055616;28;20422;-86
2021/09/22 22:22:20;;;;;;;16.57;14.77;;;11.90;99.90;;;;;;5055670;28;20814;-85
2021/09/22 22:24:46;;;;;;;17.03;15.50;;;11.90;99.90;;;;;;5054019;28;20427;-86
2021/09/22 22:27:12;;;;;;;17.70;15.93;;;11.90;99.90;;;;;;5055316;28;20424;-86
2021/09/22 22:29:37;;;;;;;16.53;14.90;;;11.90;99.90;;;;;;5053951;28;20951;-85
2021/09/22 22:32:03;;;;;;;16.07;14.60;;;11.80;99.90;;;;;;5054191;28;20170;-85
2021/09/22 22:34:31;;;;;;;21.43;19.13;;;12.00;99.90;;;;;;5055324;28;20199;-84
2021/09/22 22:36:58;;;;;;;19.97;17.77;;;12.20;99.90;;;;;;5055377;28;20239;-85
2021/09/22 22:39:25;;;;;;;19.63;17.73;;;12.20;99.90;;;;;;5055343;28;20434;-85
2021/09/22 22:41:51;;;;;;;19.43;17.43;;;12.10;99.90;;;;;;5055245;28;20906;-85
2021/09/22 22:44:17;;;;;;;17.47;14.97;;;12.00;99.90;;;;;;5055224;28;20426;-85
2021/09/22 22:46:43;;;;;;;19.73;14.87;;;12.00;99.90;;;;;;5054317;28;20173;-84
2021/09/22 22:49:08;;;;;;;23.03;20.30;;;12.10;99.90;;;;;;5055156;28;20503;-86
2021/09/22 22:51:34;;;;;;;20.83;18.60;;;12.20;99.90;;;;;;5053883;28;20180;-87
2021/09/22 22:53:59;;;;;;;20.90;18.83;;;12.30;99.90;;;;;;5055039;28;20238;-86
2021/09/22 22:56:25;;;;;;;20.60;18.43;;;12.30;99.90;;;;;;5055006;28;20214;-87
2021/09/22 22:58:51;;;;;;;23.77;21.37;;;12.30;99.90;;;;;;5055021;28;20173;-86
2021/09/22 23:01:17;;;;;;;26.47;23.50;;;12.30;99.90;;;;;;5054562;28;20181;-87
2021/09/22 23:03:43;;;;;;;25.10;22.57;;;12.40;99.90;;;;;;5054695;28;20407;-86
2021/09/22 23:06:09;;;;;;;24.93;22.50;;;12.40;99.90;;;;;;5053595;28;20437;-87
2021/09/22 23:08:35;;;;;;;26.20;20.30;;;12.40;99.90;;;;;;5054801;28;20629;-86
2021/09/22 23:11:03;;;;;;;26.07;23.20;;;12.30;99.90;;;;;;5054823;28;20455;-86
2021/09/22 23:13:28;;;;;;;26.90;24.00;;;12.30;99.90;;;;;;5054755;28;20255;-86
2021/09/22 23:16:02;;;;;;;24.93;22.40;;;12.40;99.90;;;;;;5052829;28;20837;-86
2021/09/22 23:23:43;;;;;;;27.90;23.00;;;12.40;99.90;;;;;;5054595;28;20419;-86
2021/09/22 23:26:09;;;;;;;30.57;25.60;;;12.40;99.90;;;;;;5054497;28;20412;-86
2021/09/22 23:28:34;;;;;;;29.23;24.57;;;12.50;99.90;;;;;;5054395;28;20417;-86
2021/09/22 23:31:00;;;;;;;26.70;24.00;;;12.50;99.90;;;;;;5054142;28;20171;-86
2021/09/22 23:33:25;;;;;;;29.10;26.20;;;12.60;99.90;;;;;;5054436;28;20182;-86
2021/09/22 23:35:52;;;;;;;27.60;24.73;;;12.70;99.90;;;;;;5054379;28;20208;-85
2021/09/22 23:38:18;;;;;;;28.47;25.47;;;12.70;99.90;;;;;;5053153;28;20179;-85
2021/09/22 23:40:44;;;;;;;27.60;24.77;;;12.80;99.90;;;;;;5054332;28;20428;-85
2021/09/22 23:43:10;;;;;;;29.50;25.33;;;12.70;99.90;;;;;;5053052;28;20418;-86
2021/09/22 23:45:37;;;;;;;29.57;24.40;;;12.70;99.90;;;;;;5053997;28;20617;-85
2021/09/22 23:48:04;;;;;;;28.33;25.63;;;12.60;99.90;;;;;;5054297;28;20419;-85
2021/09/22 23:50:29;;;;;;;32.57;25.37;;;12.60;99.90;;;;;;5054244;28;20461;-87
2021/09/22 23:52:55;;;;;;;31.50;28.03;;;12.70;99.90;;;;;;5052910;28;20823;-85
2021/09/22 23:55:21;;;;;;;31.17;26.53;;;12.70;99.90;;;;;;5054045;28;20251;-85
2021/09/22 23:57:49;;;;;;;31.67;28.23;;;12.70;99.90;;;;;;5054116;28;20634;-84
